Discarica di Monteschiantello Fano (PU) (lat. 43.789272 - lon. 13.063131) Temps solaire
Dernière mise à jour :24/03/2019 03:45:58

Temperatura (°C) - Valeurs moyennes et maximales minimales au cours des dernières 72 heures


Precipitazione totale (mm) - Valeurs au cours des dernières 72 heures


Velocità del vento (m/s) - Valeurs moyennes et maximales minimales au cours des dernières 72 heures


Dernières valeurs mesurées

MesureDernière valeur observéeTrendDate de détection
Temperatura med. (°C)10,29 24/03/2019 03:00:00
Temperatura min. (°C)9,98 24/03/2019 03:00:00
Temperatura max. (°C)10,45 24/03/2019 03:00:00
Umidità relativa med. (%)44,87 24/03/2019 03:00:00
Umidità relativa min. (%)44,18 24/03/2019 03:00:00
Umidità relativa max. (%)46,29 24/03/2019 03:00:00
Pressione atmosferica med. (hPa)1011,98 24/03/2019 03:00:00
Radiazione netta med. (W/m^2)-36,31 24/03/2019 03:00:00
Radiazione netta min. (W/m^2)-38,78 24/03/2019 03:00:00
Radiazione netta max. (W/m^2)-34,21 24/03/2019 03:00:00
Velocità vento med. (m/s)0,00 24/03/2019 03:00:00
Velocità vento min. (m/s)0,00 24/03/2019 03:00:00
Velocità vento max. (m/s)0,44 24/03/2019 03:00:00
Direzione vento (gradi)276,30 24/03/2019 03:00:00
Precipitazione totale (mm)0,00 24/03/2019 03:00:00
Contenuto idrico terreno Med. (%)11,66 24/03/2019 03:00:00
Contenuto idrico terreno Min. (%)11,40 24/03/2019 03:00:00
Contenuto idrico terreno Max. (%)11,71 24/03/2019 03:00:00
Radiazione globale med. (W/m^2)0,00 24/03/2019 03:00:00
Radiazione globale min. (W/m^2)0,00 24/03/2019 03:00:00
Radiazione globale max. (W/m^2)0,00 24/03/2019 03:00:00
Temperatura suolo med. (°C)11,70 24/03/2019 03:00:00
Temperatura suolo min. (°C)11,60 24/03/2019 03:00:00
Temperatura suolo max. (°C)11,70 24/03/2019 03:00:00

Chargement…

..

...